createdAt,value
2023-05-24T00:01:29.241Z,91.69
2023-05-24T00:04:00.918Z,91.28
2023-05-24T00:06:34.818Z,90.74
2023-05-24T00:09:06.169Z,90.93
2023-05-24T00:11:37.549Z,90.71
2023-05-24T00:14:08.957Z,91.19
2023-05-24T00:16:41.393Z,90.81
2023-05-24T00:19:18.379Z,90.68
2023-05-24T00:21:49.981Z,90.63
2023-05-24T00:24:21.634Z,90.82
2023-05-24T00:26:53.014Z,90.81
2023-05-24T00:29:24.429Z,91.14
2023-05-24T00:31:55.881Z,90.95
2023-05-24T00:34:27.222Z,91.43
2023-05-24T00:36:58.630Z,90.65
2023-05-24T00:39:29.945Z,91.25
2023-05-24T00:42:02.166Z,91.29
2023-05-24T00:44:33.483Z,90.50
2023-05-24T00:47:05.258Z,91.03
2023-05-24T00:49:36.712Z,91.09
2023-05-24T00:52:08.916Z,91.29
2023-05-24T00:54:40.770Z,91.46
2023-05-24T00:57:14.051Z,90.91
2023-05-24T00:59:46.270Z,91.44
2023-05-24T01:02:18.387Z,91.02
2023-05-24T01:04:49.768Z,91.01
2023-05-24T01:07:54.404Z,90.87
2023-05-24T01:10:39.208Z,90.51
2023-05-24T01:13:23.541Z,90.64
2023-05-24T01:16:07.637Z,91.32
2023-05-24T01:18:44.201Z,91.04
2023-05-24T01:21:18.543Z,90.82
2023-05-24T01:24:22.660Z,90.78
2023-05-24T01:27:07.612Z,91.02
2023-05-24T01:29:39.186Z,91.16
2023-05-24T01:32:10.544Z,90.97
2023-05-24T01:34:41.873Z,90.59
2023-05-24T01:37:13.267Z,91.13
2023-05-24T01:39:44.729Z,90.98
2023-05-24T01:43:00.651Z,91.25
2023-05-24T01:45:39.567Z,90.82
2023-05-24T01:48:31.126Z,91.07
2023-05-24T01:51:07.742Z,91.19
2023-05-24T01:53:44.804Z,91.37
2023-05-24T01:56:19.480Z,91.40
2023-05-24T01:58:53.286Z,91.45
2023-05-24T02:01:24.971Z,91.03
2023-05-24T02:03:56.356Z,91.47
2023-05-24T02:06:27.780Z,90.92
2023-05-24T02:08:59.099Z,91.25
2023-05-24T02:11:30.544Z,91.42
2023-05-24T02:14:01.874Z,91.17
2023-05-24T02:16:33.350Z,91.63
2023-05-24T02:19:04.675Z,91.17
2023-05-24T02:21:36.389Z,91.47
2023-05-24T02:24:07.952Z,91.45
2023-05-24T02:26:39.374Z,91.29
2023-05-24T02:29:10.782Z,91.59
2023-05-24T02:31:42.520Z,91.54
2023-05-24T02:34:13.873Z,91.95
2023-05-24T02:36:45.710Z,91.67
2023-05-24T02:39:17.621Z,91.28
2023-05-24T02:41:51.024Z,91.80
2023-05-24T02:44:22.352Z,91.35
2023-05-24T02:46:53.703Z,91.39
2023-05-24T02:49:25.008Z,91.68
2023-05-24T02:51:56.328Z,91.15
2023-05-24T02:54:27.648Z,91.28
2023-05-24T02:56:59.100Z,91.46
2023-05-24T02:59:31.148Z,91.76
2023-05-24T03:02:02.608Z,91.73
2023-05-24T03:04:34.041Z,91.68
2023-05-24T03:07:05.960Z,91.58
2023-05-24T03:09:37.343Z,91.23
2023-05-24T03:12:08.837Z,91.33
2023-05-24T03:14:40.217Z,91.32
2023-05-24T03:17:11.548Z,91.36
2023-05-24T03:19:42.847Z,91.21
2023-05-24T03:22:14.176Z,91.22
2023-05-24T03:24:46.330Z,91.19
2023-05-24T03:27:17.655Z,91.21
2023-05-24T03:29:49.056Z,91.68
2023-05-24T03:32:20.373Z,91.50
2023-05-24T03:34:51.813Z,91.64
2023-05-24T03:37:23.178Z,91.34
2023-05-24T03:39:54.504Z,91.52
2023-05-24T03:42:25.902Z,91.23
2023-05-24T03:44:57.237Z,91.84
2023-05-24T03:47:28.613Z,91.13
2023-05-24T03:50:00.138Z,91.09
2023-05-24T03:52:31.555Z,90.88
2023-05-24T03:55:02.895Z,90.99
2023-05-24T03:57:34.273Z,91.46
2023-05-24T04:00:07.375Z,91.11
2023-05-24T04:02:38.868Z,91.51
2023-05-24T04:05:10.808Z,91.35
2023-05-24T04:07:43.736Z,91.15
2023-05-24T04:10:15.090Z,91.07
2023-05-24T04:12:46.456Z,91.50
2023-05-24T04:15:17.860Z,91.13
2023-05-24T04:17:54.867Z,91.09
2023-05-24T04:20:27.742Z,91.32
2023-05-24T04:22:59.249Z,91.58
2023-05-24T04:25:30.677Z,91.55
2023-05-24T04:28:04.626Z,91.18
2023-05-24T04:30:36.694Z,91.75
2023-05-24T04:33:08.388Z,91.92
2023-05-24T04:35:40.689Z,91.85
2023-05-24T04:38:12.698Z,91.65
2023-05-24T04:40:44.377Z,91.96
2023-05-24T04:43:15.842Z,92.08
2023-05-24T04:45:47.457Z,91.64
2023-05-24T04:48:19.489Z,92.42
2023-05-24T04:50:52.227Z,91.98
2023-05-24T04:53:24.121Z,92.16
2023-05-24T04:55:55.485Z,92.02
2023-05-24T04:58:26.835Z,92.33
2023-05-24T05:00:58.207Z,92.62
2023-05-24T05:03:29.577Z,92.50
2023-05-24T05:06:01.105Z,92.31
2023-05-24T05:08:33.543Z,92.41
2023-05-24T05:11:04.894Z,93.09
2023-05-24T05:13:36.241Z,92.52
2023-05-24T05:16:07.699Z,93.16
2023-05-24T05:18:39.115Z,92.75
2023-05-24T05:21:10.743Z,93.20
2023-05-24T05:23:42.056Z,93.14
2023-05-24T05:26:13.392Z,93.47
2023-05-24T05:28:44.693Z,93.41
2023-05-24T05:31:16.280Z,93.18
2023-05-24T05:33:47.707Z,93.21
2023-05-24T05:36:19.364Z,93.68
2023-05-24T05:38:50.719Z,93.57
2023-05-24T05:41:22.422Z,93.40
2023-05-24T05:43:53.740Z,93.23
2023-05-24T05:46:25.112Z,93.53
2023-05-24T05:48:56.500Z,93.37
2023-05-24T05:51:27.943Z,93.29
2023-05-24T05:53:59.316Z,93.30
2023-05-24T05:56:30.718Z,93.22
2023-05-24T05:59:02.041Z,93.14
2023-05-24T06:01:33.423Z,93.72
2023-05-24T06:04:04.936Z,93.60
2023-05-24T06:06:36.372Z,93.42
2023-05-24T06:09:08.316Z,93.59
2023-05-24T06:11:42.967Z,93.46
2023-05-24T06:14:18.497Z,93.89
2023-05-24T06:16:50.162Z,93.76
2023-05-24T06:19:21.713Z,93.75
2023-05-24T06:21:54.139Z,93.39
2023-05-24T06:24:25.924Z,93.80
2023-05-24T06:26:57.981Z,93.87
2023-05-24T06:29:29.295Z,93.62
2023-05-24T06:32:00.787Z,93.53
2023-05-24T06:34:32.131Z,93.85
2023-05-24T06:37:03.830Z,93.32
2023-05-24T06:39:35.151Z,93.43
2023-05-24T06:42:06.692Z,93.78
2023-05-24T06:44:38.029Z,93.89
2023-05-24T06:47:09.576Z,93.64
2023-05-24T06:49:41.841Z,93.84
2023-05-24T06:52:13.772Z,93.84
2023-05-24T06:54:45.384Z,93.58
2023-05-24T06:57:16.687Z,93.60
2023-05-24T06:59:47.995Z,93.89
2023-05-24T07:02:23.974Z,93.59
2023-05-24T07:04:55.569Z,93.54
2023-05-24T07:07:26.980Z,93.50
2023-05-24T07:09:58.306Z,93.21
2023-05-24T07:12:29.677Z,93.05
2023-05-24T07:15:01.124Z,93.24
2023-05-24T07:17:32.901Z,93.14
2023-05-24T07:20:09.515Z,92.89
2023-05-24T07:22:41.278Z,92.84
2023-05-24T07:25:12.702Z,92.95
2023-05-24T07:27:44.076Z,92.85
2023-05-24T07:30:27.723Z,92.88
2023-05-24T07:33:03.214Z,93.03
2023-05-24T07:35:35.052Z,93.09
2023-05-24T07:38:06.916Z,92.54
2023-05-24T07:40:38.280Z,92.59
2023-05-24T07:43:09.646Z,92.58
2023-05-24T07:45:41.231Z,92.14
2023-05-24T07:48:12.787Z,92.31
2023-05-24T07:50:48.407Z,92.41
2023-05-24T07:53:19.946Z,92.51
2023-05-24T07:55:51.666Z,92.82
2023-05-24T07:58:23.035Z,92.69
2023-05-24T08:00:54.416Z,92.71
2023-05-24T08:03:25.932Z,92.44
2023-05-24T08:05:57.911Z,92.67
2023-05-24T08:08:29.580Z,92.72
2023-05-24T08:11:01.083Z,92.30
2023-05-24T08:13:32.406Z,91.91
2023-05-24T08:16:03.859Z,92.35
2023-05-24T08:18:35.334Z,92.03
2023-05-24T08:21:06.859Z,91.97
2023-05-24T08:23:38.372Z,91.97
2023-05-24T08:26:09.831Z,92.18
2023-05-24T08:28:41.242Z,91.72
2023-05-24T08:31:12.692Z,91.29
2023-05-24T08:33:44.612Z,91.58
2023-05-24T08:36:19.650Z,91.49
2023-05-24T08:38:51.025Z,91.52
2023-05-24T08:41:22.577Z,91.37
2023-05-24T08:43:58.605Z,91.13
2023-05-24T08:46:30.638Z,91.01
2023-05-24T08:49:07.428Z,91.25
2023-05-24T08:51:39.774Z,91.14
2023-05-24T08:54:13.613Z,90.91
2023-05-24T08:56:45.111Z,90.74
2023-05-24T08:59:17.985Z,91.00
2023-05-24T09:01:53.764Z,91.02
2023-05-24T09:04:27.559Z,91.06
2023-05-24T09:06:59.829Z,90.78
2023-05-24T09:09:34.224Z,90.94
2023-05-24T09:12:08.495Z,91.25
2023-05-24T09:14:45.444Z,91.16
2023-05-24T09:17:16.989Z,91.53
2023-05-24T09:19:51.614Z,91.35
2023-05-24T09:22:25.930Z,91.53
2023-05-24T09:25:01.543Z,91.29
2023-05-24T09:27:34.982Z,91.37
2023-05-24T09:30:15.481Z,91.76
2023-05-24T09:33:00.866Z,92.04
2023-05-24T09:35:32.570Z,92.43
2023-05-24T09:38:03.999Z,92.71
2023-05-24T09:40:35.373Z,92.94
2023-05-24T09:43:09.523Z,93.54
2023-05-24T09:45:46.658Z,93.00
2023-05-24T09:48:20.486Z,92.96
2023-05-24T09:51:05.241Z,93.23
2023-05-24T09:53:37.076Z,93.96
2023-05-24T09:56:09.794Z,94.61
2023-05-24T09:58:42.235Z,95.33
2023-05-24T10:01:17.879Z,95.48
2023-05-24T10:03:54.334Z,96.05
2023-05-24T10:06:25.858Z,96.46
2023-05-24T10:08:58.063Z,96.76
2023-05-24T10:11:29.634Z,96.97
2023-05-24T10:14:00.976Z,97.12
2023-05-24T10:16:32.906Z,97.20
2023-05-24T10:19:05.982Z,97.65
2023-05-24T10:21:42.093Z,98.08
2023-05-24T10:24:13.863Z,98.02
2023-05-24T10:26:48.719Z,99.05
2023-05-24T10:29:34.809Z,99.18
2023-05-24T10:32:06.710Z,98.91
2023-05-24T10:34:39.111Z,98.84
2023-05-24T10:37:10.671Z,99.12
2023-05-24T10:39:42.068Z,98.96
2023-05-24T10:42:13.634Z,98.66
2023-05-24T10:44:45.286Z,98.16
2023-05-24T10:47:20.063Z,98.11
2023-05-24T10:49:55.110Z,98.64
2023-05-24T10:52:36.153Z,98.66
2023-05-24T10:55:09.623Z,98.69
2023-05-24T10:57:41.678Z,98.55
2023-05-24T11:00:34.754Z,97.81
2023-05-24T11:03:09.089Z,98.15
2023-05-24T11:05:47.760Z,98.47
2023-05-24T11:08:29.425Z,98.18
2023-05-24T11:11:24.528Z,98.12
2023-05-24T11:13:57.850Z,98.08
2023-05-24T11:16:37.372Z,98.26
2023-05-24T11:19:29.097Z,99.16
2023-05-24T11:22:02.817Z,98.77
2023-05-24T11:24:34.586Z,99.33
2023-05-24T11:27:06.885Z,99.42
2023-05-24T11:29:43.308Z,99.65
2023-05-24T11:32:16.788Z,99.71
2023-05-24T11:34:49.498Z,99.56
2023-05-24T11:37:28.626Z,99.90
2023-05-24T11:40:09.979Z,99.45
2023-05-24T11:42:41.704Z,99.35
2023-05-24T11:45:16.395Z,99.55
2023-05-24T11:47:49.186Z,99.24
2023-05-24T11:50:25.252Z,98.81
2023-05-24T11:53:04.131Z,98.14
2023-05-24T11:55:36.639Z,97.87
2023-05-24T11:58:19.295Z,97.91
2023-05-24T12:00:51.460Z,97.86
2023-05-24T12:03:22.997Z,97.77
2023-05-24T12:05:57.225Z,97.92
2023-05-24T12:08:28.525Z,98.23
2023-05-24T12:10:59.996Z,98.28
2023-05-24T12:13:31.403Z,98.29
2023-05-24T12:16:02.888Z,98.57
2023-05-24T12:18:34.282Z,98.18
2023-05-24T12:21:11.235Z,98.27
2023-05-24T12:23:42.531Z,98.11
2023-05-24T12:26:14.744Z,97.40
2023-05-24T12:28:52.585Z,97.68
2023-05-24T12:31:24.078Z,97.39
2023-05-24T12:33:55.623Z,97.31
2023-05-24T12:36:29.413Z,97.28
2023-05-24T12:39:04.889Z,97.22
2023-05-24T12:41:36.425Z,97.16
2023-05-24T12:44:09.809Z,97.20
2023-05-24T12:46:41.193Z,97.34
2023-05-24T12:49:12.769Z,97.41
2023-05-24T12:51:44.658Z,97.42
2023-05-24T12:54:19.596Z,97.58
2023-05-24T12:56:55.609Z,97.57
2023-05-24T12:59:28.434Z,97.36
2023-05-24T13:02:00.618Z,96.93
2023-05-24T13:04:33.622Z,96.10
2023-05-24T13:07:05.544Z,95.78
2023-05-24T13:09:36.948Z,95.82
2023-05-24T13:12:08.874Z,95.93
2023-05-24T13:14:40.489Z,95.36
2023-05-24T13:17:11.997Z,94.96
2023-05-24T13:19:43.729Z,94.71
2023-05-24T13:22:15.405Z,94.02
2023-05-24T13:24:47.105Z,93.14
2023-05-24T13:27:18.569Z,93.08
2023-05-24T13:30:00.338Z,92.81
2023-05-24T13:32:33.326Z,92.80
2023-05-24T13:35:08.193Z,92.67
2023-05-24T13:37:40.905Z,92.68
2023-05-24T13:40:12.547Z,92.79
2023-05-24T13:42:43.924Z,93.28
2023-05-24T13:45:16.731Z,93.13
2023-05-24T13:47:48.333Z,93.07
2023-05-24T13:50:22.669Z,93.60
2023-05-24T13:52:54.032Z,93.46
2023-05-24T13:55:25.483Z,93.89
2023-05-24T13:57:57.324Z,93.78
2023-05-24T14:00:28.717Z,93.66
2023-05-24T14:03:00.384Z,93.61
2023-05-24T14:05:32.355Z,93.74
2023-05-24T14:08:06.547Z,93.39
2023-05-24T14:10:38.142Z,93.06
2023-05-24T14:15:44.794Z,92.97
2023-05-24T14:18:16.680Z,92.91
2023-05-24T14:20:48.140Z,92.71
2023-05-24T14:23:19.444Z,92.38
2023-05-24T14:25:52.102Z,92.66
2023-05-24T14:28:23.486Z,92.70
2023-05-24T14:30:54.800Z,92.15
2023-05-24T14:33:26.232Z,92.43
2023-05-24T14:35:57.725Z,91.80
2023-05-24T14:38:29.161Z,91.83
2023-05-24T14:41:01.536Z,91.64
2023-05-24T14:43:33.222Z,90.82
2023-05-24T14:46:04.936Z,90.60
2023-05-24T14:48:37.255Z,91.29
2023-05-24T14:51:08.814Z,91.33
2023-05-24T14:53:40.201Z,91.01
2023-05-24T14:56:13.984Z,90.47
2023-05-24T14:58:45.559Z,90.28
2023-05-24T15:01:17.055Z,90.15
2023-05-24T15:03:48.654Z,89.87
2023-05-24T15:06:20.038Z,89.46
2023-05-24T15:08:52.050Z,89.12
2023-05-24T15:11:23.377Z,88.67
2023-05-24T15:13:58.543Z,88.18
2023-05-24T15:16:30.024Z,88.20
2023-05-24T15:19:01.392Z,87.74
2023-05-24T15:21:32.803Z,86.44
2023-05-24T15:24:04.251Z,87.57
2023-05-24T15:26:35.630Z,87.09
2023-05-24T15:29:07.094Z,87.31
2023-05-24T15:31:38.497Z,87.30
2023-05-24T15:34:09.967Z,87.22
2023-05-24T15:36:41.433Z,86.92
2023-05-24T15:39:12.740Z,86.92
2023-05-24T15:41:44.148Z,86.97
2023-05-24T15:44:15.490Z,87.21
2023-05-24T15:46:47.631Z,86.12
2023-05-24T15:49:19.071Z,86.40
2023-05-24T15:54:24.721Z,85.50
2023-05-24T15:56:56.113Z,84.86
2023-05-24T15:59:28.216Z,85.56
2023-05-24T16:01:59.585Z,85.36
2023-05-24T16:04:31.588Z,85.25
2023-05-24T16:07:02.993Z,85.24
2023-05-24T16:09:34.472Z,85.31
2023-05-24T16:14:38.439Z,84.94
2023-05-24T16:17:10.332Z,85.00
2023-05-24T16:19:41.897Z,84.76
2023-05-24T16:22:13.233Z,84.24
2023-05-24T16:24:44.710Z,84.49
2023-05-24T16:27:16.079Z,84.48
2023-05-24T16:29:49.207Z,84.58
2023-05-24T16:32:20.549Z,84.42
2023-05-24T16:34:56.117Z,84.44
2023-05-24T16:37:28.372Z,84.63
2023-05-24T16:40:00.014Z,84.57
2023-05-24T16:42:31.373Z,84.35
2023-05-24T16:45:02.818Z,84.43
2023-05-24T16:47:34.287Z,84.90
2023-05-24T16:50:06.630Z,84.87
2023-05-24T16:52:37.944Z,84.56
2023-05-24T16:55:10.614Z,84.44
2023-05-24T16:57:42.127Z,84.67
2023-05-24T17:00:15.258Z,84.52
2023-05-24T17:02:46.754Z,84.43
2023-05-24T17:05:18.149Z,84.18
2023-05-24T17:07:49.624Z,84.25
2023-05-24T17:10:21.579Z,83.80
2023-05-24T17:12:56.780Z,84.25
2023-05-24T17:15:29.554Z,84.28
2023-05-24T17:18:01.268Z,84.41
2023-05-24T17:20:33.951Z,84.24
2023-05-24T17:23:05.831Z,84.25
2023-05-24T17:25:37.682Z,84.19
2023-05-24T17:28:09.302Z,84.13
2023-05-24T17:30:41.126Z,83.74
2023-05-24T17:33:13.474Z,83.34
2023-05-24T17:35:45.111Z,82.87
2023-05-24T17:38:17.054Z,83.33
2023-05-24T17:40:51.816Z,83.62
2023-05-24T17:43:23.605Z,83.65
2023-05-24T17:46:08.711Z,83.60
2023-05-24T17:48:41.161Z,83.63
2023-05-24T17:51:12.774Z,83.76
2023-05-24T17:53:44.835Z,83.23
2023-05-24T17:56:16.252Z,83.28
2023-05-24T17:58:47.936Z,83.30
2023-05-24T18:01:19.411Z,83.45
2023-05-24T18:03:50.897Z,83.38
2023-05-24T18:06:22.230Z,83.80
2023-05-24T18:08:53.924Z,83.74
2023-05-24T18:11:25.249Z,83.98
2023-05-24T18:13:57.238Z,84.29
2023-05-24T18:16:28.648Z,84.04
2023-05-24T18:19:00.190Z,84.10
2023-05-24T18:21:32.324Z,84.65
2023-05-24T18:24:03.751Z,84.77
2023-05-24T18:26:35.452Z,84.57
2023-05-24T18:29:06.800Z,85.04
2023-05-24T18:31:38.177Z,85.27
2023-05-24T18:34:09.705Z,85.10
2023-05-24T18:36:41.179Z,85.68
2023-05-24T18:39:12.494Z,85.65
2023-05-24T18:41:44.009Z,85.69
2023-05-24T18:44:15.515Z,86.11
2023-05-24T18:46:47.010Z,86.32
2023-05-24T18:49:18.461Z,86.50
2023-05-24T18:51:49.921Z,86.80
2023-05-24T18:54:21.414Z,86.84
2023-05-24T18:56:52.906Z,86.96
2023-05-24T18:59:28.943Z,87.15
2023-05-24T19:02:03.460Z,87.10
2023-05-24T19:04:34.837Z,87.96
2023-05-24T19:07:06.300Z,87.76
2023-05-24T19:09:37.699Z,88.41
2023-05-24T19:12:11.428Z,88.24
2023-05-24T19:14:43.157Z,88.61
2023-05-24T19:17:14.553Z,88.68
2023-05-24T19:19:46.355Z,88.53
2023-05-24T19:22:17.690Z,88.87
2023-05-24T19:24:49.068Z,89.18
2023-05-24T19:27:20.528Z,89.41
2023-05-24T19:29:52.095Z,89.42
2023-05-24T19:32:23.579Z,89.53
2023-05-24T19:34:54.982Z,89.23
2023-05-24T19:37:26.331Z,89.66
2023-05-24T19:39:57.826Z,89.97
2023-05-24T19:42:29.298Z,90.21
2023-05-24T19:45:00.901Z,90.25
2023-05-24T19:47:32.417Z,90.28
2023-05-24T19:50:04.002Z,90.68
2023-05-24T19:52:35.357Z,90.61
2023-05-24T19:55:08.154Z,90.88
2023-05-24T19:57:39.640Z,90.99
2023-05-24T20:00:12.358Z,91.03
2023-05-24T20:02:43.861Z,91.49
2023-05-24T20:05:17.248Z,91.50
2023-05-24T20:07:48.599Z,91.53
2023-05-24T20:10:20.052Z,91.64
2023-05-24T20:12:51.598Z,91.78
2023-05-24T20:15:27.583Z,91.86
2023-05-24T20:17:59.281Z,91.90
2023-05-24T20:20:31.025Z,92.00
2023-05-24T20:23:02.527Z,92.43
2023-05-24T20:25:33.856Z,92.51
2023-05-24T20:28:12.790Z,92.69
2023-05-24T20:30:50.234Z,93.16
2023-05-24T20:33:21.634Z,92.77
2023-05-24T20:35:54.392Z,92.96
2023-05-24T20:38:25.737Z,92.94
2023-05-24T20:40:57.110Z,93.27
2023-05-24T20:43:28.434Z,93.23
2023-05-24T20:46:00.039Z,93.02
2023-05-24T20:48:31.454Z,93.44
2023-05-24T20:51:03.382Z,93.65
2023-05-24T20:53:34.949Z,93.40
2023-05-24T20:56:06.448Z,93.42
2023-05-24T20:58:39.710Z,93.46
2023-05-24T21:01:11.255Z,93.49
2023-05-24T21:03:42.649Z,93.51
2023-05-24T21:06:14.185Z,93.84
2023-05-24T21:08:45.755Z,94.15
2023-05-24T21:11:17.213Z,93.98
2023-05-24T21:13:48.536Z,94.04
2023-05-24T21:16:19.910Z,94.31
2023-05-24T21:18:51.729Z,94.35
2023-05-24T21:21:23.620Z,94.10
2023-05-24T21:23:55.628Z,94.07
2023-05-24T21:26:27.098Z,94.64
2023-05-24T21:28:58.457Z,94.95
2023-05-24T21:31:30.241Z,94.79
2023-05-24T21:34:01.643Z,94.75
2023-05-24T21:36:33.143Z,94.91
2023-05-24T21:39:07.951Z,95.23
2023-05-24T21:41:39.337Z,94.83
2023-05-24T21:44:10.911Z,95.00
2023-05-24T21:46:42.320Z,94.73
2023-05-24T21:49:13.708Z,94.87
2023-05-24T21:51:45.211Z,94.81
2023-05-24T21:54:16.661Z,94.98
2023-05-24T21:56:48.030Z,94.54
2023-05-24T21:59:21.189Z,94.70
2023-05-24T22:01:52.654Z,94.98
2023-05-24T22:04:24.065Z,94.38
2023-05-24T22:06:55.502Z,94.94
2023-05-24T22:09:26.842Z,94.29
2023-05-24T22:11:58.170Z,94.42
2023-05-24T22:14:29.563Z,94.95
2023-05-24T22:17:00.936Z,94.36
2023-05-24T22:19:39.577Z,94.47
2023-05-24T22:22:12.393Z,94.68
2023-05-24T22:24:43.883Z,94.63
2023-05-24T22:27:16.871Z,94.90
2023-05-24T22:29:48.219Z,95.12
2023-05-24T22:32:19.629Z,95.08
2023-05-24T22:34:51.032Z,95.08
2023-05-24T22:37:22.364Z,94.62
2023-05-24T22:39:53.672Z,95.01
2023-05-24T22:42:25.067Z,94.88
2023-05-24T22:44:56.421Z,94.69
2023-05-24T22:47:28.692Z,94.88
2023-05-24T22:50:01.887Z,94.74
2023-05-24T22:52:36.432Z,94.88
2023-05-24T22:55:08.428Z,95.05
2023-05-24T22:57:39.796Z,94.76
2023-05-24T23:00:11.886Z,95.01
2023-05-24T23:02:43.296Z,94.67
2023-05-24T23:05:14.831Z,94.90
2023-05-24T23:07:48.446Z,95.09
2023-05-24T23:10:19.843Z,94.58
2023-05-24T23:12:51.638Z,95.01
2023-05-24T23:15:22.964Z,95.11
2023-05-24T23:17:56.317Z,94.98
2023-05-24T23:20:27.737Z,94.78
2023-05-24T23:23:02.553Z,94.88
2023-05-24T23:25:34.733Z,94.59
2023-05-24T23:28:06.485Z,94.81
2023-05-24T23:30:37.842Z,94.70
2023-05-24T23:33:09.334Z,94.64
2023-05-24T23:35:40.767Z,94.86
2023-05-24T23:38:13.615Z,94.63
2023-05-24T23:40:44.948Z,94.84
2023-05-24T23:43:16.512Z,94.67
2023-05-24T23:45:47.838Z,94.71
2023-05-24T23:48:20.400Z,94.66
2023-05-24T23:50:54.349Z,94.55
2023-05-24T23:53:26.228Z,94.54
2023-05-24T23:55:57.553Z,94.78
2023-05-24T23:58:28.915Z,94.44
